sensor_id;sensor_type;location;lat;lon;timestamp;P1;durP1;ratioP1;P2;durP2;ratioP2
14052;SDS011;7101;51.600;7.310;2023-06-10T00:02:13;11.32;;;7.55;;
14052;SDS011;7101;51.600;7.310;2023-06-10T00:04:43;8.60;;;7.55;;
14052;SDS011;7101;51.600;7.310;2023-06-10T00:07:09;8.70;;;7.47;;
14052;SDS011;7101;51.600;7.310;2023-06-10T00:09:36;9.52;;;7.45;;
14052;SDS011;7101;51.600;7.310;2023-06-10T00:12:04;7.95;;;7.15;;
14052;SDS011;7101;51.600;7.310;2023-06-10T00:14:31;9.15;;;7.10;;
14052;SDS011;7101;51.600;7.310;2023-06-10T00:17:03;9.27;;;7.82;;
14052;SDS011;7101;51.600;7.310;2023-06-10T00:19:34;8.52;;;7.22;;
14052;SDS011;7101;51.600;7.310;2023-06-10T00:22:01;11.15;;;7.95;;
14052;SDS011;7101;51.600;7.310;2023-06-10T00:24:30;10.77;;;7.35;;
14052;SDS011;7101;51.600;7.310;2023-06-10T00:26:56;10.05;;;7.90;;
14052;SDS011;7101;51.600;7.310;2023-06-10T00:29:23;14.60;;;7.97;;
14052;SDS011;7101;51.600;7.310;2023-06-10T00:31:50;9.35;;;7.82;;
14052;SDS011;7101;51.600;7.310;2023-06-10T00:34:20;9.20;;;8.03;;
14052;SDS011;7101;51.600;7.310;2023-06-10T00:36:47;12.07;;;7.70;;
14052;SDS011;7101;51.600;7.310;2023-06-10T00:39:14;9.55;;;7.60;;
14052;SDS011;7101;51.600;7.310;2023-06-10T00:41:41;14.32;;;7.63;;
14052;SDS011;7101;51.600;7.310;2023-06-10T00:44:09;9.63;;;8.63;;
14052;SDS011;7101;51.600;7.310;2023-06-10T00:46:36;9.40;;;8.05;;
14052;SDS011;7101;51.600;7.310;2023-06-10T00:49:03;8.48;;;7.60;;
14052;SDS011;7101;51.600;7.310;2023-06-10T00:51:31;9.38;;;8.32;;
14052;SDS011;7101;51.600;7.310;2023-06-10T00:53:58;8.60;;;7.35;;
14052;SDS011;7101;51.600;7.310;2023-06-10T00:56:25;12.52;;;8.50;;
14052;SDS011;7101;51.600;7.310;2023-06-10T00:58:53;11.98;;;8.63;;
14052;SDS011;7101;51.600;7.310;2023-06-10T01:01:20;13.68;;;8.73;;
14052;SDS011;7101;51.600;7.310;2023-06-10T01:03:47;10.05;;;8.23;;
14052;SDS011;7101;51.600;7.310;2023-06-10T01:06:16;9.50;;;8.50;;
14052;SDS011;7101;51.600;7.310;2023-06-10T01:08:54;10.80;;;9.02;;
14052;SDS011;7101;51.600;7.310;2023-06-10T01:11:33;17.55;;;8.73;;
14052;SDS011;7101;51.600;7.310;2023-06-10T01:14:03;10.00;;;8.32;;
14052;SDS011;7101;51.600;7.310;2023-06-10T01:16:32;10.10;;;9.00;;
14052;SDS011;7101;51.600;7.310;2023-06-10T01:19:02;15.23;;;8.75;;
14052;SDS011;7101;51.600;7.310;2023-06-10T01:21:31;9.68;;;8.77;;
14052;SDS011;7101;51.600;7.310;2023-06-10T01:23:58;10.25;;;8.52;;
14052;SDS011;7101;51.600;7.310;2023-06-10T01:26:25;9.38;;;8.48;;
14052;SDS011;7101;51.600;7.310;2023-06-10T01:28:57;10.60;;;9.48;;
14052;SDS011;7101;51.600;7.310;2023-06-10T01:31:31;10.55;;;9.43;;
14052;SDS011;7101;51.600;7.310;2023-06-10T01:34:10;12.05;;;9.02;;
14052;SDS011;7101;51.600;7.310;2023-06-10T01:36:41;11.40;;;9.13;;
14052;SDS011;7101;51.600;7.310;2023-06-10T01:39:12;10.77;;;9.23;;
14052;SDS011;7101;51.600;7.310;2023-06-10T01:41:41;10.77;;;9.68;;
14052;SDS011;7101;51.600;7.310;2023-06-10T01:44:08;14.02;;;9.40;;
14052;SDS011;7101;51.600;7.310;2023-06-10T01:46:35;12.05;;;9.02;;
14052;SDS011;7101;51.600;7.310;2023-06-10T01:49:02;11.00;;;8.85;;
14052;SDS011;7101;51.600;7.310;2023-06-10T01:51:29;11.50;;;9.48;;
14052;SDS011;7101;51.600;7.310;2023-06-10T01:53:58;12.95;;;9.32;;
14052;SDS011;7101;51.600;7.310;2023-06-10T01:56:31;10.32;;;9.23;;
14052;SDS011;7101;51.600;7.310;2023-06-10T01:58:58;12.15;;;9.07;;
14052;SDS011;7101;51.600;7.310;2023-06-10T02:01:25;12.60;;;9.27;;
14052;SDS011;7101;51.600;7.310;2023-06-10T02:03:52;9.85;;;8.80;;
14052;SDS011;7101;51.600;7.310;2023-06-10T02:06:19;10.98;;;9.40;;
14052;SDS011;7101;51.600;7.310;2023-06-10T02:08:46;10.15;;;9.13;;
14052;SDS011;7101;51.600;7.310;2023-06-10T02:11:14;10.98;;;9.68;;
14052;SDS011;7101;51.600;7.310;2023-06-10T02:13:41;13.48;;;10.07;;
14052;SDS011;7101;51.600;7.310;2023-06-10T02:16:08;11.65;;;10.13;;
14052;SDS011;7101;51.600;7.310;2023-06-10T02:18:37;10.98;;;9.48;;
14052;SDS011;7101;51.600;7.310;2023-06-10T02:21:05;11.98;;;9.40;;
14052;SDS011;7101;51.600;7.310;2023-06-10T02:23:33;11.85;;;10.10;;
14052;SDS011;7101;51.600;7.310;2023-06-10T02:26:00;11.15;;;9.05;;
14052;SDS011;7101;51.600;7.310;2023-06-10T02:28:30;13.38;;;9.68;;
14052;SDS011;7101;51.600;7.310;2023-06-10T02:30:57;10.98;;;9.18;;
14052;SDS011;7101;51.600;7.310;2023-06-10T02:33:25;11.93;;;9.73;;
14052;SDS011;7101;51.600;7.310;2023-06-10T02:35:52;11.05;;;10.00;;
14052;SDS011;7101;51.600;7.310;2023-06-10T02:38:20;13.88;;;10.77;;
14052;SDS011;7101;51.600;7.310;2023-06-10T02:40:47;16.52;;;9.68;;
14052;SDS011;7101;51.600;7.310;2023-06-10T02:43:13;15.00;;;10.13;;
14052;SDS011;7101;51.600;7.310;2023-06-10T02:45:41;12.48;;;9.88;;
14052;SDS011;7101;51.600;7.310;2023-06-10T02:48:08;14.40;;;10.80;;
14052;SDS011;7101;51.600;7.310;2023-06-10T02:50:35;11.75;;;9.88;;
14052;SDS011;7101;51.600;7.310;2023-06-10T02:53:04;11.43;;;10.05;;
14052;SDS011;7101;51.600;7.310;2023-06-10T02:55:30;11.73;;;9.95;;
14052;SDS011;7101;51.600;7.310;2023-06-10T02:57:57;10.80;;;9.68;;
14052;SDS011;7101;51.600;7.310;2023-06-10T03:00:24;11.07;;;9.98;;
14052;SDS011;7101;51.600;7.310;2023-06-10T03:02:52;10.98;;;9.88;;
14052;SDS011;7101;51.600;7.310;2023-06-10T03:05:22;11.85;;;9.88;;
14052;SDS011;7101;51.600;7.310;2023-06-10T03:07:49;14.80;;;10.43;;
14052;SDS011;7101;51.600;7.310;2023-06-10T03:10:16;11.10;;;9.25;;
14052;SDS011;7101;51.600;7.310;2023-06-10T03:12:43;11.93;;;10.45;;
14052;SDS011;7101;51.600;7.310;2023-06-10T03:15:16;12.23;;;10.05;;
14052;SDS011;7101;51.600;7.310;2023-06-10T03:17:45;11.02;;;9.85;;
14052;SDS011;7101;51.600;7.310;2023-06-10T03:20:14;13.15;;;9.60;;
14052;SDS011;7101;51.600;7.310;2023-06-10T03:22:41;12.05;;;9.73;;
14052;SDS011;7101;51.600;7.310;2023-06-10T03:25:08;11.95;;;10.38;;
14052;SDS011;7101;51.600;7.310;2023-06-10T03:27:38;11.82;;;10.00;;
14052;SDS011;7101;51.600;7.310;2023-06-10T03:30:06;10.80;;;9.18;;
14052;SDS011;7101;51.600;7.310;2023-06-10T03:32:33;12.90;;;10.00;;
14052;SDS011;7101;51.600;7.310;2023-06-10T03:35:00;13.13;;;9.50;;
14052;SDS011;7101;51.600;7.310;2023-06-10T03:37:29;10.15;;;9.05;;
14052;SDS011;7101;51.600;7.310;2023-06-10T03:39:56;10.65;;;8.52;;
14052;SDS011;7101;51.600;7.310;2023-06-10T03:42:22;12.80;;;8.93;;
14052;SDS011;7101;51.600;7.310;2023-06-10T03:44:50;9.73;;;8.55;;
14052;SDS011;7101;51.600;7.310;2023-06-10T03:47:18;11.15;;;8.82;;
14052;SDS011;7101;51.600;7.310;2023-06-10T03:49:44;11.52;;;9.10;;
14052;SDS011;7101;51.600;7.310;2023-06-10T03:52:11;10.65;;;8.90;;
14052;SDS011;7101;51.600;7.310;2023-06-10T03:54:39;10.07;;;8.70;;
14052;SDS011;7101;51.600;7.310;2023-06-10T03:57:06;12.82;;;9.38;;
14052;SDS011;7101;51.600;7.310;2023-06-10T03:59:33;10.27;;;8.10;;
14052;SDS011;7101;51.600;7.310;2023-06-10T04:02:00;10.10;;;8.60;;
14052;SDS011;7101;51.600;7.310;2023-06-10T04:04:27;9.63;;;8.00;;
14052;SDS011;7101;51.600;7.310;2023-06-10T04:06:54;13.38;;;8.23;;
14052;SDS011;7101;51.600;7.310;2023-06-10T04:09:21;9.88;;;7.70;;
14052;SDS011;7101;51.600;7.310;2023-06-10T04:11:49;9.75;;;8.23;;
14052;SDS011;7101;51.600;7.310;2023-06-10T04:14:16;9.30;;;7.15;;
14052;SDS011;7101;51.600;7.310;2023-06-10T04:16:43;11.43;;;7.30;;
14052;SDS011;7101;51.600;7.310;2023-06-10T04:19:10;9.25;;;7.13;;
14052;SDS011;7101;51.600;7.310;2023-06-10T04:21:38;9.95;;;7.07;;
14052;SDS011;7101;51.600;7.310;2023-06-10T04:24:05;9.63;;;7.07;;
14052;SDS011;7101;51.600;7.310;2023-06-10T04:26:32;9.75;;;6.75;;
14052;SDS011;7101;51.600;7.310;2023-06-10T04:29:01;11.73;;;7.22;;
14052;SDS011;7101;51.600;7.310;2023-06-10T04:31:28;9.10;;;6.90;;
14052;SDS011;7101;51.600;7.310;2023-06-10T04:33:55;10.88;;;7.38;;
14052;SDS011;7101;51.600;7.310;2023-06-10T04:36:22;7.22;;;6.53;;
14052;SDS011;7101;51.600;7.310;2023-06-10T04:38:49;7.93;;;6.25;;
14052;SDS011;7101;51.600;7.310;2023-06-10T04:41:18;9.02;;;6.35;;
14052;SDS011;7101;51.600;7.310;2023-06-10T04:43:45;11.23;;;6.18;;
14052;SDS011;7101;51.600;7.310;2023-06-10T04:46:13;9.35;;;7.03;;
14052;SDS011;7101;51.600;7.310;2023-06-10T04:48:40;9.25;;;6.35;;
14052;SDS011;7101;51.600;7.310;2023-06-10T04:51:07;9.95;;;6.70;;
14052;SDS011;7101;51.600;7.310;2023-06-10T04:53:35;8.82;;;6.20;;
14052;SDS011;7101;51.600;7.310;2023-06-10T04:56:02;7.57;;;6.30;;
14052;SDS011;7101;51.600;7.310;2023-06-10T04:58:30;9.60;;;6.70;;
14052;SDS011;7101;51.600;7.310;2023-06-10T05:00:56;10.80;;;6.55;;
14052;SDS011;7101;51.600;7.310;2023-06-10T05:03:26;10.55;;;5.82;;
14052;SDS011;7101;51.600;7.310;2023-06-10T05:05:54;10.50;;;7.22;;
14052;SDS011;7101;51.600;7.310;2023-06-10T05:08:21;10.80;;;6.25;;
14052;SDS011;7101;51.600;7.310;2023-06-10T05:10:49;10.07;;;5.90;;
14052;SDS011;7101;51.600;7.310;2023-06-10T05:13:16;8.13;;;5.85;;
14052;SDS011;7101;51.600;7.310;2023-06-10T05:15:44;6.93;;;5.88;;
14052;SDS011;7101;51.600;7.310;2023-06-10T05:18:12;7.05;;;5.70;;
14052;SDS011;7101;51.600;7.310;2023-06-10T05:20:40;9.05;;;6.22;;
14052;SDS011;7101;51.600;7.310;2023-06-10T05:23:07;11.40;;;6.10;;
14052;SDS011;7101;51.600;7.310;2023-06-10T05:25:34;9.63;;;5.70;;
14052;SDS011;7101;51.600;7.310;2023-06-10T05:28:01;8.75;;;5.60;;
14052;SDS011;7101;51.600;7.310;2023-06-10T05:30:28;7.85;;;5.32;;
14052;SDS011;7101;51.600;7.310;2023-06-10T05:32:55;12.40;;;5.80;;
14052;SDS011;7101;51.600;7.310;2023-06-10T05:35:22;6.90;;;5.63;;
14052;SDS011;7101;51.600;7.310;2023-06-10T05:37:51;10.18;;;4.97;;
14052;SDS011;7101;51.600;7.310;2023-06-10T05:40:18;7.25;;;5.18;;
14052;SDS011;7101;51.600;7.310;2023-06-10T05:42:45;10.70;;;5.32;;
14052;SDS011;7101;51.600;7.310;2023-06-10T05:45:12;7.85;;;4.85;;
14052;SDS011;7101;51.600;7.310;2023-06-10T05:47:39;7.82;;;5.47;;
14052;SDS011;7101;51.600;7.310;2023-06-10T05:50:09;8.32;;;5.55;;
14052;SDS011;7101;51.600;7.310;2023-06-10T05:52:36;10.20;;;5.07;;
14052;SDS011;7101;51.600;7.310;2023-06-10T05:55:07;7.70;;;4.72;;
14052;SDS011;7101;51.600;7.310;2023-06-10T05:57:36;9.02;;;4.93;;
14052;SDS011;7101;51.600;7.310;2023-06-10T06:00:06;5.85;;;4.60;;
14052;SDS011;7101;51.600;7.310;2023-06-10T06:02:35;5.70;;;4.60;;
14052;SDS011;7101;51.600;7.310;2023-06-10T06:05:06;7.82;;;4.85;;
14052;SDS011;7101;51.600;7.310;2023-06-10T06:07:33;6.03;;;4.90;;
14052;SDS011;7101;51.600;7.310;2023-06-10T06:10:01;7.00;;;4.53;;
14052;SDS011;7101;51.600;7.310;2023-06-10T06:12:30;6.63;;;4.75;;
14052;SDS011;7101;51.600;7.310;2023-06-10T06:14:57;7.55;;;4.28;;
14052;SDS011;7101;51.600;7.310;2023-06-10T06:17:24;6.45;;;4.25;;
14052;SDS011;7101;51.600;7.310;2023-06-10T06:19:51;6.00;;;4.22;;
14052;SDS011;7101;51.600;7.310;2023-06-10T06:22:18;6.65;;;4.22;;
14052;SDS011;7101;51.600;7.310;2023-06-10T06:24:47;7.32;;;4.30;;
14052;SDS011;7101;51.600;7.310;2023-06-10T06:27:14;8.45;;;4.60;;
14052;SDS011;7101;51.600;7.310;2023-06-10T06:29:45;7.88;;;4.57;;
14052;SDS011;7101;51.600;7.310;2023-06-10T06:32:11;6.45;;;4.30;;
14052;SDS011;7101;51.600;7.310;2023-06-10T06:34:38;5.07;;;4.40;;
14052;SDS011;7101;51.600;7.310;2023-06-10T06:37:06;6.50;;;4.68;;
14052;SDS011;7101;51.600;7.310;2023-06-10T06:39:33;4.93;;;4.03;;
14052;SDS011;7101;51.600;7.310;2023-06-10T06:42:00;9.73;;;4.30;;
14052;SDS011;7101;51.600;7.310;2023-06-10T06:44:27;10.82;;;4.28;;
14052;SDS011;7101;51.600;7.310;2023-06-10T06:46:56;8.63;;;4.20;;
14052;SDS011;7101;51.600;7.310;2023-06-10T06:49:23;8.27;;;4.75;;
14052;SDS011;7101;51.600;7.310;2023-06-10T06:51:50;6.60;;;4.40;;
14052;SDS011;7101;51.600;7.310;2023-06-10T06:54:20;7.50;;;4.80;;
14052;SDS011;7101;51.600;7.310;2023-06-10T06:56:46;6.50;;;3.97;;
14052;SDS011;7101;51.600;7.310;2023-06-10T06:59:13;8.50;;;4.35;;
14052;SDS011;7101;51.600;7.310;2023-06-10T07:01:42;7.25;;;4.32;;
14052;SDS011;7101;51.600;7.310;2023-06-10T07:04:10;5.45;;;4.28;;
14052;SDS011;7101;51.600;7.310;2023-06-10T07:06:37;6.47;;;4.63;;
14052;SDS011;7101;51.600;7.310;2023-06-10T07:09:06;15.57;;;5.03;;
14052;SDS011;7101;51.600;7.310;2023-06-10T07:11:34;6.30;;;4.05;;
14052;SDS011;7101;51.600;7.310;2023-06-10T07:14:01;7.20;;;4.32;;
14052;SDS011;7101;51.600;7.310;2023-06-10T07:16:33;5.47;;;4.18;;
14052;SDS011;7101;51.600;7.310;2023-06-10T07:19:01;5.50;;;4.00;;
14052;SDS011;7101;51.600;7.310;2023-06-10T07:21:29;8.25;;;4.53;;
14052;SDS011;7101;51.600;7.310;2023-06-10T07:23:57;9.85;;;4.28;;
14052;SDS011;7101;51.600;7.310;2023-06-10T07:26:29;6.07;;;3.90;;
14052;SDS011;7101;51.600;7.310;2023-06-10T07:28:56;6.38;;;4.03;;
14052;SDS011;7101;51.600;7.310;2023-06-10T07:31:23;5.65;;;4.22;;
14052;SDS011;7101;51.600;7.310;2023-06-10T07:33:50;9.20;;;4.35;;
14052;SDS011;7101;51.600;7.310;2023-06-10T07:36:18;6.13;;;4.28;;
14052;SDS011;7101;51.600;7.310;2023-06-10T07:38:46;7.75;;;4.35;;
14052;SDS011;7101;51.600;7.310;2023-06-10T07:41:13;7.78;;;3.70;;
14052;SDS011;7101;51.600;7.310;2023-06-10T07:43:42;6.63;;;4.20;;
14052;SDS011;7101;51.600;7.310;2023-06-10T07:46:09;7.38;;;4.32;;
14052;SDS011;7101;51.600;7.310;2023-06-10T07:48:36;11.02;;;4.05;;
14052;SDS011;7101;51.600;7.310;2023-06-10T07:51:03;7.13;;;4.07;;
14052;SDS011;7101;51.600;7.310;2023-06-10T07:53:30;6.10;;;3.33;;
14052;SDS011;7101;51.600;7.310;2023-06-10T07:55:58;6.38;;;3.90;;
14052;SDS011;7101;51.600;7.310;2023-06-10T07:58:26;5.57;;;3.67;;
14052;SDS011;7101;51.600;7.310;2023-06-10T08:00:53;8.13;;;3.90;;
14052;SDS011;7101;51.600;7.310;2023-06-10T08:03:20;5.00;;;3.50;;
14052;SDS011;7101;51.600;7.310;2023-06-10T08:05:48;4.68;;;3.45;;
14052;SDS011;7101;51.600;7.310;2023-06-10T08:08:15;7.15;;;4.10;;
14052;SDS011;7101;51.600;7.310;2023-06-10T08:10:42;7.63;;;3.45;;
14052;SDS011;7101;51.600;7.310;2023-06-10T08:13:10;7.20;;;3.95;;
14052;SDS011;7101;51.600;7.310;2023-06-10T08:15:37;4.25;;;3.70;;
14052;SDS011;7101;51.600;7.310;2023-06-10T08:18:05;5.72;;;3.83;;
14052;SDS011;7101;51.600;7.310;2023-06-10T08:20:32;7.00;;;3.72;;
14052;SDS011;7101;51.600;7.310;2023-06-10T08:22:59;6.07;;;3.95;;
14052;SDS011;7101;51.600;7.310;2023-06-10T08:25:26;7.55;;;4.35;;
14052;SDS011;7101;51.600;7.310;2023-06-10T08:27:53;5.57;;;3.95;;
14052;SDS011;7101;51.600;7.310;2023-06-10T08:30:23;7.00;;;4.05;;
14052;SDS011;7101;51.600;7.310;2023-06-10T08:32:50;6.35;;;3.88;;
14052;SDS011;7101;51.600;7.310;2023-06-10T08:35:17;6.72;;;3.90;;
14052;SDS011;7101;51.600;7.310;2023-06-10T08:37:45;6.35;;;3.92;;
14052;SDS011;7101;51.600;7.310;2023-06-10T08:40:12;9.80;;;4.03;;
14052;SDS011;7101;51.600;7.310;2023-06-10T08:42:39;8.60;;;3.60;;
14052;SDS011;7101;51.600;7.310;2023-06-10T08:45:12;6.60;;;3.47;;
14052;SDS011;7101;51.600;7.310;2023-06-10T08:47:44;7.78;;;3.83;;
14052;SDS011;7101;51.600;7.310;2023-06-10T08:50:16;5.85;;;3.70;;
14052;SDS011;7101;51.600;7.310;2023-06-10T08:52:53;6.22;;;3.55;;
14052;SDS011;7101;51.600;7.310;2023-06-10T08:55:26;6.95;;;3.45;;
14052;SDS011;7101;51.600;7.310;2023-06-10T08:57:56;5.38;;;3.33;;
14052;SDS011;7101;51.600;7.310;2023-06-10T09:00:31;4.65;;;3.38;;
14052;SDS011;7101;51.600;7.310;2023-06-10T09:03:01;10.73;;;3.58;;
14052;SDS011;7101;51.600;7.310;2023-06-10T09:05:28;5.53;;;3.70;;
14052;SDS011;7101;51.600;7.310;2023-06-10T09:07:57;6.18;;;3.83;;
14052;SDS011;7101;51.600;7.310;2023-06-10T09:10:24;4.65;;;3.65;;
14052;SDS011;7101;51.600;7.310;2023-06-10T09:12:53;5.30;;;3.88;;
14052;SDS011;7101;51.600;7.310;2023-06-10T09:15:20;5.60;;;3.60;;
14052;SDS011;7101;51.600;7.310;2023-06-10T09:17:47;5.43;;;3.55;;
14052;SDS011;7101;51.600;7.310;2023-06-10T09:20:15;8.30;;;4.30;;
14052;SDS011;7101;51.600;7.310;2023-06-10T09:22:43;5.15;;;3.70;;
14052;SDS011;7101;51.600;7.310;2023-06-10T09:25:10;5.90;;;3.67;;
14052;SDS011;7101;51.600;7.310;2023-06-10T09:27:44;7.10;;;4.50;;
14052;SDS011;7101;51.600;7.310;2023-06-10T09:30:23;7.97;;;3.90;;
14052;SDS011;7101;51.600;7.310;2023-06-10T09:32:52;7.68;;;4.00;;
14052;SDS011;7101;51.600;7.310;2023-06-10T09:35:22;6.25;;;3.85;;
14052;SDS011;7101;51.600;7.310;2023-06-10T09:37:53;9.27;;;4.55;;
14052;SDS011;7101;51.600;7.310;2023-06-10T09:40:22;6.60;;;3.70;;
14052;SDS011;7101;51.600;7.310;2023-06-10T09:42:52;9.30;;;4.28;;
14052;SDS011;7101;51.600;7.310;2023-06-10T09:45:21;7.32;;;4.25;;
14052;SDS011;7101;51.600;7.310;2023-06-10T09:47:51;5.88;;;4.03;;
14052;SDS011;7101;51.600;7.310;2023-06-10T09:50:19;6.82;;;3.47;;
14052;SDS011;7101;51.600;7.310;2023-06-10T09:52:47;8.35;;;4.00;;
14052;SDS011;7101;51.600;7.310;2023-06-10T09:55:14;6.10;;;3.70;;
14052;SDS011;7101;51.600;7.310;2023-06-10T09:57:41;5.13;;;3.70;;
14052;SDS011;7101;51.600;7.310;2023-06-10T10:00:12;4.10;;;3.17;;
14052;SDS011;7101;51.600;7.310;2023-06-10T10:02:45;5.72;;;3.50;;
14052;SDS011;7101;51.600;7.310;2023-06-10T10:05:13;4.75;;;3.70;;
14052;SDS011;7101;51.600;7.310;2023-06-10T10:07:40;10.43;;;3.65;;
14052;SDS011;7101;51.600;7.310;2023-06-10T10:10:09;5.72;;;3.90;;
14052;SDS011;7101;51.600;7.310;2023-06-10T10:12:38;5.57;;;3.85;;
14052;SDS011;7101;51.600;7.310;2023-06-10T10:15:05;5.10;;;3.85;;
14052;SDS011;7101;51.600;7.310;2023-06-10T10:17:34;5.93;;;3.67;;
14052;SDS011;7101;51.600;7.310;2023-06-10T10:20:04;5.65;;;3.90;;
14052;SDS011;7101;51.600;7.310;2023-06-10T10:22:35;4.88;;;4.00;;
14052;SDS011;7101;51.600;7.310;2023-06-10T10:25:06;6.13;;;3.78;;
14052;SDS011;7101;51.600;7.310;2023-06-10T10:27:40;5.20;;;3.80;;
14052;SDS011;7101;51.600;7.310;2023-06-10T10:30:12;4.18;;;3.45;;
14052;SDS011;7101;51.600;7.310;2023-06-10T10:32:43;9.15;;;4.20;;
14052;SDS011;7101;51.600;7.310;2023-06-10T10:35:19;5.72;;;3.88;;
14052;SDS011;7101;51.600;7.310;2023-06-10T10:37:48;8.70;;;4.25;;
14052;SDS011;7101;51.600;7.310;2023-06-10T10:40:16;9.30;;;4.07;;
14052;SDS011;7101;51.600;7.310;2023-06-10T10:42:47;6.07;;;4.15;;
14052;SDS011;7101;51.600;7.310;2023-06-10T10:45:17;6.80;;;4.03;;
14052;SDS011;7101;51.600;7.310;2023-06-10T10:47:45;6.47;;;3.92;;
14052;SDS011;7101;51.600;7.310;2023-06-10T10:50:18;5.55;;;3.70;;
14052;SDS011;7101;51.600;7.310;2023-06-10T10:52:48;8.30;;;3.83;;
14052;SDS011;7101;51.600;7.310;2023-06-10T10:55:27;6.28;;;4.00;;
14052;SDS011;7101;51.600;7.310;2023-06-10T10:57:55;6.55;;;3.70;;
14052;SDS011;7101;51.600;7.310;2023-06-10T11:00:29;6.60;;;3.75;;
14052;SDS011;7101;51.600;7.310;2023-06-10T11:05:43;7.18;;;4.10;;
14052;SDS011;7101;51.600;7.310;2023-06-10T11:08:14;8.82;;;4.60;;
14052;SDS011;7101;51.600;7.310;2023-06-10T11:10:51;6.90;;;4.50;;
14052;SDS011;7101;51.600;7.310;2023-06-10T11:13:19;6.60;;;3.65;;
14052;SDS011;7101;51.600;7.310;2023-06-10T11:15:50;5.95;;;3.80;;
14052;SDS011;7101;51.600;7.310;2023-06-10T11:18:20;5.07;;;3.90;;
14052;SDS011;7101;51.600;7.310;2023-06-10T11:20:53;4.32;;;3.72;;
14052;SDS011;7101;51.600;7.310;2023-06-10T11:23:34;6.80;;;3.75;;
14052;SDS011;7101;51.600;7.310;2023-06-10T11:26:12;4.82;;;4.03;;
14052;SDS011;7101;51.600;7.310;2023-06-10T11:28:40;6.95;;;4.13;;
14052;SDS011;7101;51.600;7.310;2023-06-10T11:31:09;5.18;;;3.88;;
14052;SDS011;7101;51.600;7.310;2023-06-10T11:33:44;8.40;;;4.10;;
14052;SDS011;7101;51.600;7.310;2023-06-10T11:36:13;5.45;;;4.20;;
14052;SDS011;7101;51.600;7.310;2023-06-10T11:38:40;5.50;;;4.13;;
14052;SDS011;7101;51.600;7.310;2023-06-10T11:41:09;9.15;;;4.45;;
14052;SDS011;7101;51.600;7.310;2023-06-10T11:43:40;6.45;;;4.00;;
14052;SDS011;7101;51.600;7.310;2023-06-10T11:46:08;5.47;;;4.32;;
14052;SDS011;7101;51.600;7.310;2023-06-10T11:48:35;6.57;;;4.38;;
14052;SDS011;7101;51.600;7.310;2023-06-10T11:51:05;6.28;;;3.83;;
14052;SDS011;7101;51.600;7.310;2023-06-10T11:53:32;5.25;;;3.95;;
14052;SDS011;7101;51.600;7.310;2023-06-10T11:56:00;5.35;;;3.85;;
14052;SDS011;7101;51.600;7.310;2023-06-10T11:58:28;8.32;;;4.13;;
14052;SDS011;7101;51.600;7.310;2023-06-10T12:00:55;7.30;;;4.40;;
14052;SDS011;7101;51.600;7.310;2023-06-10T12:03:23;6.55;;;4.18;;
14052;SDS011;7101;51.600;7.310;2023-06-10T12:05:56;4.70;;;3.95;;
14052;SDS011;7101;51.600;7.310;2023-06-10T12:08:24;5.45;;;3.95;;
14052;SDS011;7101;51.600;7.310;2023-06-10T12:10:52;8.02;;;4.65;;
14052;SDS011;7101;51.600;7.310;2023-06-10T12:13:20;4.63;;;3.97;;
14052;SDS011;7101;51.600;7.310;2023-06-10T12:15:49;6.38;;;3.95;;
14052;SDS011;7101;51.600;7.310;2023-06-10T12:18:16;5.88;;;4.18;;
14052;SDS011;7101;51.600;7.310;2023-06-10T12:20:44;5.32;;;3.75;;
14052;SDS011;7101;51.600;7.310;2023-06-10T12:23:11;5.25;;;4.13;;
14052;SDS011;7101;51.600;7.310;2023-06-10T12:25:39;7.80;;;4.10;;
14052;SDS011;7101;51.600;7.310;2023-06-10T12:28:15;6.97;;;4.18;;
14052;SDS011;7101;51.600;7.310;2023-06-10T12:30:42;7.00;;;4.53;;
14052;SDS011;7101;51.600;7.310;2023-06-10T12:33:16;6.15;;;4.78;;
14052;SDS011;7101;51.600;7.310;2023-06-10T12:35:47;4.57;;;4.18;;
14052;SDS011;7101;51.600;7.310;2023-06-10T12:38:17;6.85;;;4.30;;
14052;SDS011;7101;51.600;7.310;2023-06-10T12:40:47;6.18;;;4.05;;
14052;SDS011;7101;51.600;7.310;2023-06-10T12:43:18;5.15;;;4.00;;
14052;SDS011;7101;51.600;7.310;2023-06-10T12:45:46;5.28;;;4.07;;
14052;SDS011;7101;51.600;7.310;2023-06-10T12:48:18;4.60;;;3.80;;
14052;SDS011;7101;51.600;7.310;2023-06-10T12:50:50;5.50;;;4.20;;
14052;SDS011;7101;51.600;7.310;2023-06-10T12:53:17;6.07;;;4.55;;
14052;SDS011;7101;51.600;7.310;2023-06-10T12:55:45;6.70;;;4.47;;
14052;SDS011;7101;51.600;7.310;2023-06-10T12:58:12;6.10;;;4.68;;
14052;SDS011;7101;51.600;7.310;2023-06-10T13:00:39;7.65;;;4.82;;
14052;SDS011;7101;51.600;7.310;2023-06-10T13:03:07;5.57;;;4.05;;
14052;SDS011;7101;51.600;7.310;2023-06-10T13:05:37;5.43;;;4.18;;
14052;SDS011;7101;51.600;7.310;2023-06-10T13:08:04;6.78;;;4.30;;
14052;SDS011;7101;51.600;7.310;2023-06-10T13:10:33;8.73;;;4.13;;
14052;SDS011;7101;51.600;7.310;2023-06-10T13:13:00;6.30;;;4.30;;
14052;SDS011;7101;51.600;7.310;2023-06-10T13:15:30;4.80;;;4.30;;
14052;SDS011;7101;51.600;7.310;2023-06-10T13:17:57;7.18;;;4.80;;
14052;SDS011;7101;51.600;7.310;2023-06-10T13:20:24;5.78;;;4.32;;
14052;SDS011;7101;51.600;7.310;2023-06-10T13:22:52;5.82;;;4.00;;
14052;SDS011;7101;51.600;7.310;2023-06-10T13:25:19;5.85;;;4.10;;
14052;SDS011;7101;51.600;7.310;2023-06-10T13:27:46;4.80;;;3.92;;
14052;SDS011;7101;51.600;7.310;2023-06-10T13:30:13;5.80;;;4.25;;
14052;SDS011;7101;51.600;7.310;2023-06-10T13:32:40;7.63;;;4.10;;
14052;SDS011;7101;51.600;7.310;2023-06-10T13:35:07;7.15;;;5.00;;
14052;SDS011;7101;51.600;7.310;2023-06-10T13:37:34;6.60;;;4.63;;
14052;SDS011;7101;51.600;7.310;2023-06-10T13:40:03;7.85;;;4.38;;
14052;SDS011;7101;51.600;7.310;2023-06-10T13:42:33;5.97;;;4.35;;
14052;SDS011;7101;51.600;7.310;2023-06-10T13:45:01;8.73;;;4.43;;
14052;SDS011;7101;51.600;7.310;2023-06-10T13:47:27;5.07;;;3.97;;
14052;SDS011;7101;51.600;7.310;2023-06-10T13:49:54;5.22;;;4.18;;
14052;SDS011;7101;51.600;7.310;2023-06-10T13:52:21;10.27;;;4.35;;
14052;SDS011;7101;51.600;7.310;2023-06-10T13:54:48;5.63;;;4.00;;
14052;SDS011;7101;51.600;7.310;2023-06-10T13:57:16;8.55;;;4.35;;
14052;SDS011;7101;51.600;7.310;2023-06-10T13:59:43;6.40;;;4.15;;
14052;SDS011;7101;51.600;7.310;2023-06-10T14:02:09;6.03;;;4.20;;
14052;SDS011;7101;51.600;7.310;2023-06-10T14:04:36;6.00;;;4.25;;
14052;SDS011;7101;51.600;7.310;2023-06-10T14:07:03;10.57;;;4.82;;
14052;SDS011;7101;51.600;7.310;2023-06-10T14:09:31;9.52;;;4.38;;
14052;SDS011;7101;51.600;7.310;2023-06-10T14:11:58;6.10;;;4.10;;
14052;SDS011;7101;51.600;7.310;2023-06-10T14:14:26;5.32;;;4.10;;
14052;SDS011;7101;51.600;7.310;2023-06-10T14:16:53;6.85;;;4.05;;
14052;SDS011;7101;51.600;7.310;2023-06-10T14:19:20;6.10;;;4.38;;
14052;SDS011;7101;51.600;7.310;2023-06-10T14:21:47;4.57;;;4.18;;
14052;SDS011;7101;51.600;7.310;2023-06-10T14:24:14;8.88;;;4.55;;
14052;SDS011;7101;51.600;7.310;2023-06-10T14:26:41;7.65;;;4.43;;
14052;SDS011;7101;51.600;7.310;2023-06-10T14:29:08;6.07;;;4.00;;
14052;SDS011;7101;51.600;7.310;2023-06-10T14:31:36;4.72;;;4.13;;
14052;SDS011;7101;51.600;7.310;2023-06-10T14:34:03;5.28;;;4.10;;
14052;SDS011;7101;51.600;7.310;2023-06-10T14:36:31;9.75;;;4.28;;
14052;SDS011;7101;51.600;7.310;2023-06-10T14:38:58;6.20;;;3.70;;
14052;SDS011;7101;51.600;7.310;2023-06-10T14:41:25;4.80;;;3.67;;
14052;SDS011;7101;51.600;7.310;2023-06-10T14:43:51;6.85;;;4.10;;
14052;SDS011;7101;51.600;7.310;2023-06-10T14:46:18;5.78;;;4.22;;
14052;SDS011;7101;51.600;7.310;2023-06-10T14:48:47;6.78;;;4.47;;
14052;SDS011;7101;51.600;7.310;2023-06-10T14:51:14;5.03;;;4.07;;
14052;SDS011;7101;51.600;7.310;2023-06-10T14:53:41;5.10;;;4.28;;
14052;SDS011;7101;51.600;7.310;2023-06-10T14:56:08;7.53;;;4.32;;
14052;SDS011;7101;51.600;7.310;2023-06-10T14:58:35;6.60;;;3.90;;
14052;SDS011;7101;51.600;7.310;2023-06-10T15:01:01;5.03;;;3.70;;
14052;SDS011;7101;51.600;7.310;2023-06-10T15:03:28;6.45;;;3.95;;
14052;SDS011;7101;51.600;7.310;2023-06-10T15:05:57;9.63;;;4.07;;
14052;SDS011;7101;51.600;7.310;2023-06-10T15:08:25;5.18;;;4.00;;